Terminal Aerodrome Forecast
Issued by NWS Pittsburgh, PA

Current Version | Previous Version | Graphics & Text | Print | Product List | Glossary On
Versions: 1 2 3 4 5 6 7 8 9 10 11 12 13 14 15 16 17 18 19 20 21 22 23 24 25 26 27 28 29 30 31
000
FTUS41 KPBZ 301400 AAB
TAFPIT
TAF AMD
KPIT 301442Z 3015/0118 21004KT P6SM SCT100
     FM301600 23006KT 4SM -SHRA VCTS BKN020CB
      TEMPO 3016/3018 1SM SHRA BKN020
     FM301800 28006KT 2SM BR BKN010
     FM302300 35005KT P6SM BKN035=

USA.gov is the U.S. government's official web portal to all federal, state and local government web resources and services.